createdAt,value
2023-05-08T04:37:37.160Z,19.13
2023-05-08T04:40:03.659Z,19.36
2023-05-08T04:42:30.245Z,17.09
2023-05-08T04:44:58.145Z,17.22
2023-05-08T04:47:24.720Z,17.87
2023-05-08T04:49:51.356Z,18.44
2023-05-08T04:52:17.922Z,17.62
2023-05-08T04:54:44.464Z,17.90
2023-05-08T04:57:11.014Z,18.76
2023-05-08T04:59:37.546Z,20.21
2023-05-08T05:02:04.126Z,19.71
2023-05-08T05:04:30.672Z,20.70
2023-05-08T05:06:57.197Z,18.84
2023-05-08T05:09:23.805Z,18.27
2023-05-08T05:11:50.299Z,18.97
2023-05-08T05:14:16.803Z,19.09
2023-05-08T07:04:55.642Z,17.19
2023-05-08T07:07:22.301Z,17.81
2023-05-08T07:09:48.935Z,16.73
2023-05-08T07:12:15.435Z,15.98
2023-05-08T07:14:42.081Z,15.60
2023-05-08T07:17:08.674Z,16.48
2023-05-08T07:19:35.166Z,15.58
2023-05-08T07:22:01.699Z,16.26
2023-05-08T07:24:28.178Z,17.81
2023-05-08T07:26:54.669Z,15.78
2023-05-08T07:29:21.212Z,15.33
2023-05-08T07:31:47.890Z,15.70
2023-05-08T07:34:14.606Z,16.74
2023-05-08T07:36:41.110Z,16.12
2023-05-08T07:39:07.625Z,16.82
2023-05-08T07:41:34.174Z,16.01
2023-05-08T07:44:00.729Z,17.20
2023-05-08T07:46:27.268Z,18.09
2023-05-08T07:48:53.818Z,17.23
2023-05-08T07:51:20.303Z,17.46
2023-05-08T07:53:46.808Z,17.49
2023-05-08T07:56:13.233Z,17.29
2023-05-08T07:58:39.688Z,17.83
2023-05-08T08:01:06.132Z,17.83
2023-05-08T08:03:32.620Z,16.08
2023-05-08T08:05:59.148Z,17.64
2023-05-08T08:08:25.667Z,17.08
2023-05-08T08:10:52.151Z,15.36
2023-05-08T08:13:18.674Z,16.85
2023-05-08T08:15:45.202Z,15.39
2023-05-08T08:18:11.692Z,15.25
2023-05-08T08:20:38.181Z,14.99
2023-05-08T08:23:04.725Z,17.65
2023-05-08T08:25:31.196Z,15.64
2023-05-08T08:27:57.626Z,14.85
2023-05-08T08:30:24.189Z,15.40
2023-05-08T08:32:50.718Z,16.79
2023-05-08T08:35:17.379Z,15.59
2023-05-08T08:37:44.091Z,15.27
2023-05-08T08:40:10.643Z,15.83
2023-05-08T08:42:37.214Z,15.56
2023-05-08T08:45:03.691Z,14.60
2023-05-08T08:47:30.259Z,15.07
2023-05-08T08:49:56.695Z,16.41
2023-05-08T08:52:23.195Z,15.86
2023-05-08T08:54:49.743Z,14.22
2023-05-08T08:57:16.236Z,14.18
2023-05-08T08:59:42.709Z,14.46
2023-05-08T09:02:09.341Z,14.84
2023-05-08T09:04:35.961Z,14.40
2023-05-08T09:07:02.460Z,16.07
2023-05-08T09:09:28.992Z,15.97
2023-05-08T09:11:55.502Z,16.09
2023-05-08T09:14:22.028Z,14.91
2023-05-08T09:16:48.761Z,15.44
2023-05-08T09:19:15.309Z,14.97
2023-05-08T09:21:41.935Z,14.76
2023-05-08T09:24:08.496Z,12.93
2023-05-08T09:26:34.949Z,16.43
2023-05-08T09:29:01.373Z,15.22
2023-05-08T09:31:27.880Z,15.53
2023-05-08T09:33:54.395Z,15.86
2023-05-08T09:36:20.847Z,15.62
2023-05-08T09:38:47.376Z,14.29
2023-05-08T09:41:13.891Z,13.76
2023-05-08T09:43:40.657Z,15.45
2023-05-08T09:46:07.243Z,14.60
2023-05-08T09:48:33.688Z,14.33
2023-05-08T09:51:00.251Z,15.12
2023-05-08T09:53:26.744Z,15.58
2023-05-08T09:55:53.274Z,14.64
2023-05-08T09:58:19.788Z,18.79
2023-05-08T10:00:46.318Z,22.96
2023-05-08T10:03:12.871Z,30.09
2023-05-08T10:05:39.466Z,39.06
2023-05-08T10:08:06.080Z,43.79
2023-05-08T10:10:32.530Z,44.06
2023-05-08T10:12:59.135Z,98.37
2023-05-08T10:15:25.651Z,232.92
2023-05-08T10:17:52.186Z,331.22
2023-05-08T10:20:20.074Z,346.66
2023-05-08T10:22:47.839Z,315.17
2023-05-08T10:25:14.461Z,286.60
2023-05-08T10:27:41.119Z,265.18
2023-05-08T10:30:07.668Z,251.87
2023-05-08T10:32:34.258Z,253.14
2023-05-08T10:35:00.775Z,246.43
2023-05-08T10:37:27.229Z,230.31
2023-05-08T10:39:53.733Z,221.94
2023-05-08T10:42:20.311Z,219.12
2023-05-08T10:44:46.809Z,206.23
2023-05-08T10:47:13.265Z,199.16
2023-05-08T10:49:39.791Z,190.81
2023-05-08T10:52:06.285Z,186.92
2023-05-08T10:54:32.730Z,177.13
2023-05-08T10:56:59.245Z,181.19
2023-05-08T10:59:25.664Z,174.65
2023-05-08T11:01:52.237Z,159.07
2023-05-08T11:04:18.888Z,157.76
2023-05-08T11:06:45.433Z,150.34
2023-05-08T11:09:11.982Z,158.24
2023-05-08T11:11:38.553Z,145.97
2023-05-08T11:14:05.007Z,148.38
2023-05-08T11:16:31.606Z,142.48
2023-05-08T11:18:58.133Z,142.65
2023-05-08T11:21:24.656Z,141.19
2023-05-08T11:23:51.231Z,132.07
2023-05-08T11:26:17.789Z,122.79
2023-05-08T11:28:44.300Z,121.11
2023-05-08T11:31:10.879Z,123.53
2023-05-08T11:33:37.464Z,120.39
2023-05-08T11:36:03.897Z,113.47
2023-05-08T11:38:30.467Z,114.37
2023-05-08T11:40:57.049Z,108.84
2023-05-08T11:43:23.546Z,108.62
2023-05-08T11:45:50.023Z,109.71
2023-05-08T11:48:16.761Z,104.27
2023-05-08T11:50:43.261Z,100.31
2023-05-08T11:53:09.828Z,96.88
2023-05-08T11:55:36.401Z,95.46
2023-05-08T11:58:02.913Z,87.89
2023-05-08T12:00:29.428Z,86.18
2023-05-08T12:02:56.180Z,84.26
2023-05-08T12:05:22.686Z,88.02
2023-05-08T12:07:49.240Z,82.37
2023-05-08T12:10:16.682Z,76.20
2023-05-08T12:12:43.791Z,51.47
2023-05-08T12:15:10.381Z,26.47
2023-05-08T12:17:36.900Z,27.88
2023-05-08T12:20:03.358Z,45.22
2023-05-08T12:22:29.883Z,61.45
2023-05-08T12:24:56.409Z,52.80
2023-05-08T12:27:22.835Z,53.00
2023-05-08T12:29:49.361Z,54.71
2023-05-08T12:32:15.935Z,52.44
2023-05-08T12:34:42.459Z,46.93
2023-05-08T12:37:08.962Z,43.37
2023-05-08T12:39:35.464Z,40.05
2023-05-08T12:42:01.963Z,47.02
2023-05-08T12:44:28.565Z,37.18
2023-05-08T12:46:55.183Z,44.52
2023-05-08T12:49:21.711Z,46.38
2023-05-08T12:51:48.240Z,46.06
2023-05-08T12:54:14.797Z,42.27
2023-05-08T12:56:41.354Z,38.08
2023-05-08T12:59:07.813Z,37.93
2023-05-08T13:01:34.364Z,36.69
2023-05-08T13:04:02.696Z,40.22
2023-05-08T13:06:29.821Z,41.66
2023-05-08T13:08:56.336Z,43.76
2023-05-08T13:11:22.773Z,44.88
2023-05-08T13:13:49.216Z,43.99
2023-05-08T13:16:15.804Z,41.97
2023-05-08T13:18:42.307Z,42.05
2023-05-08T13:21:08.827Z,42.36
2023-05-08T13:23:35.339Z,41.20
2023-05-08T13:26:01.777Z,40.20
2023-05-08T13:28:28.279Z,37.98
2023-05-08T13:30:54.804Z,40.80
2023-05-08T13:33:21.266Z,40.80
2023-05-08T13:35:47.705Z,39.40
2023-05-08T13:38:14.211Z,40.23
2023-05-08T13:40:40.753Z,38.78
2023-05-08T13:43:07.188Z,36.70
2023-05-08T13:45:36.507Z,33.12
2023-05-08T13:48:03.025Z,32.21
2023-05-08T13:50:29.715Z,31.41
2023-05-08T13:52:56.282Z,33.87
2023-05-08T13:55:23.100Z,37.01
2023-05-08T13:57:50.017Z,35.66
2023-05-08T14:00:16.490Z,37.20
2023-05-08T14:02:43.097Z,35.51
2023-05-08T14:05:09.630Z,34.69
2023-05-08T14:07:36.099Z,35.27
2023-05-08T14:10:05.669Z,34.05
2023-05-08T14:12:32.262Z,34.16
2023-05-08T14:14:58.803Z,34.02
2023-05-08T14:17:25.298Z,35.69
2023-05-08T14:19:51.899Z,35.56
2023-05-08T14:22:18.434Z,34.88
2023-05-08T14:24:44.967Z,36.31
2023-05-08T14:27:14.252Z,35.23
2023-05-08T14:29:40.715Z,33.33
2023-05-08T14:32:07.139Z,32.16
2023-05-08T14:34:33.591Z,34.77
2023-05-08T14:37:00.105Z,32.19
2023-05-08T14:39:26.549Z,31.82
2023-05-08T14:42:05.808Z,32.76
2023-05-08T14:44:39.437Z,31.25
2023-05-08T14:47:06.016Z,31.90
2023-05-08T14:49:38.180Z,32.22
2023-05-08T14:52:05.343Z,30.47
2023-05-08T14:54:31.933Z,31.43
2023-05-08T14:56:58.651Z,27.43
2023-05-08T14:59:25.207Z,27.75
2023-05-08T15:01:51.761Z,28.53
2023-05-08T15:04:18.524Z,26.43
2023-05-08T15:06:45.083Z,26.89
2023-05-08T15:09:11.560Z,27.39
2023-05-08T15:11:38.059Z,25.20
2023-05-08T15:14:04.569Z,26.98
2023-05-08T15:16:31.076Z,27.01
2023-05-08T15:18:57.682Z,26.72
2023-05-08T15:21:24.365Z,24.28
2023-05-08T15:23:50.929Z,25.53
2023-05-08T15:26:17.413Z,26.56
2023-05-08T15:28:43.846Z,24.01
2023-05-08T15:31:10.352Z,22.87
2023-05-08T15:33:36.813Z,23.81
2023-05-08T15:36:03.311Z,25.20
2023-05-08T15:38:29.805Z,25.17
2023-05-08T15:40:56.397Z,25.46
2023-05-08T15:43:22.941Z,23.91
2023-05-08T15:45:49.472Z,23.37
2023-05-08T15:48:15.934Z,24.69
2023-05-08T15:50:42.426Z,23.49
2023-05-08T15:53:08.974Z,22.14
2023-05-08T15:55:35.494Z,24.68
2023-05-08T15:58:02.047Z,22.86
2023-05-08T16:00:33.443Z,22.00
2023-05-08T16:03:10.421Z,21.98
2023-05-08T16:05:37.071Z,20.37
2023-05-08T16:08:03.607Z,21.95
2023-05-08T16:10:30.136Z,21.57
2023-05-08T16:12:56.727Z,20.94
2023-05-08T16:15:23.381Z,22.82
2023-05-08T16:17:49.934Z,20.55
2023-05-08T16:20:16.432Z,19.23
2023-05-08T16:22:42.897Z,20.42
2023-05-08T16:25:09.349Z,19.19
2023-05-08T16:27:35.842Z,19.09
2023-05-08T16:30:02.432Z,17.75
2023-05-08T16:32:29.003Z,20.13
2023-05-08T16:34:55.530Z,19.98
2023-05-08T16:37:22.042Z,18.91
2023-05-08T16:39:48.824Z,19.15
2023-05-08T16:42:15.357Z,20.92
2023-05-08T16:44:41.796Z,19.03
2023-05-08T16:47:08.310Z,17.67
2023-05-08T16:49:34.864Z,20.12
2023-05-08T16:52:01.403Z,18.73
2023-05-08T16:54:27.965Z,19.11
2023-05-08T16:56:54.351Z,18.48
2023-05-08T16:59:20.807Z,20.81
2023-05-08T17:01:47.447Z,18.49
2023-05-08T17:04:13.979Z,18.01
2023-05-08T17:06:40.538Z,18.23
2023-05-08T17:09:09.376Z,18.20
2023-05-08T17:11:35.853Z,17.71
2023-05-08T17:14:02.314Z,18.78
2023-05-08T17:16:30.295Z,23.03
2023-05-08T17:19:01.291Z,27.79
2023-05-08T17:21:27.964Z,28.68
2023-05-08T17:23:54.411Z,25.86
2023-05-08T17:26:20.932Z,25.27
2023-05-08T17:28:48.860Z,24.80
2023-05-08T17:31:17.394Z,25.95
2023-05-08T17:33:46.969Z,27.97
2023-05-08T17:36:13.766Z,25.95
2023-05-08T17:38:44.606Z,24.16
2023-05-08T17:41:15.825Z,24.04
2023-05-08T17:43:57.260Z,24.03
2023-05-08T17:46:27.974Z,23.14
2023-05-08T17:49:03.886Z,23.24
2023-05-08T17:51:30.793Z,20.78
2023-05-08T17:53:58.356Z,22.87
2023-05-08T17:56:25.092Z,21.28
2023-05-08T17:59:04.464Z,20.66
2023-05-08T18:01:35.910Z,20.34
2023-05-08T18:04:04.504Z,16.38
2023-05-08T18:06:34.490Z,14.17
2023-05-08T18:09:01.855Z,18.29
2023-05-08T18:11:28.296Z,18.43
2023-05-08T18:13:55.300Z,18.95
2023-05-08T18:16:21.885Z,20.37
2023-05-08T18:18:49.578Z,18.70
2023-05-08T18:21:17.960Z,17.47
2023-05-08T18:23:44.686Z,16.95
2023-05-08T18:26:20.096Z,19.41
2023-05-08T18:28:57.172Z,16.45
2023-05-08T18:31:27.092Z,18.30
2023-05-08T18:33:54.485Z,16.48
2023-05-08T18:36:22.651Z,15.34
2023-05-08T18:38:52.044Z,17.14
2023-05-08T18:41:19.448Z,17.49
2023-05-08T18:43:46.441Z,15.14
2023-05-08T18:46:19.049Z,15.93
2023-05-08T18:48:51.414Z,15.77
2023-05-08T18:51:21.541Z,16.35
2023-05-08T18:53:50.556Z,14.18
2023-05-08T18:56:17.458Z,16.71
2023-05-08T18:58:46.406Z,15.22
2023-05-08T19:01:19.275Z,16.37
2023-05-08T19:03:51.378Z,17.10
2023-05-08T19:06:22.095Z,15.67
2023-05-08T19:08:48.804Z,15.64
2023-05-08T19:11:15.281Z,15.07
2023-05-08T19:13:42.089Z,14.91
2023-05-08T19:16:09.410Z,14.48
2023-05-08T19:18:36.473Z,14.35
2023-05-08T19:23:53.566Z,13.16
2023-05-08T19:26:20.166Z,15.92
2023-05-08T19:28:46.685Z,13.17
2023-05-08T19:31:16.432Z,14.00
2023-05-08T19:33:42.957Z,13.52
2023-05-08T19:36:09.498Z,14.93
2023-05-08T19:38:35.977Z,14.19
2023-05-08T19:41:02.594Z,14.92
2023-05-08T19:43:29.038Z,14.97
2023-05-08T19:45:55.660Z,14.13
2023-05-08T19:48:25.291Z,13.78
2023-05-08T19:50:54.649Z,14.06
2023-05-08T19:53:21.528Z,15.87
2023-05-08T19:55:48.039Z,13.60
2023-05-08T19:58:14.589Z,14.23
2023-05-08T20:00:41.122Z,13.46
2023-05-08T20:03:07.747Z,13.64
2023-05-08T20:08:18.622Z,13.30
2023-05-08T20:10:45.158Z,14.17
2023-05-08T20:13:11.745Z,13.30
2023-05-08T20:15:38.406Z,14.59
2023-05-08T20:18:07.669Z,14.64
2023-05-08T20:20:34.125Z,14.32
2023-05-08T20:23:00.603Z,14.43
2023-05-08T20:25:27.114Z,15.53
2023-05-08T20:27:53.571Z,15.31
2023-05-08T20:30:21.476Z,16.09
